Aviation Digital Data Service (ADDS)

Output produced by TAFs form (0150 UTC 01 September 2015)
found at http://aviationweather.gov/adds/tafs/
 
KFMN 312340Z 0100/0124 25011G20KT P6SM SCT100 BKN150 
     FM010200 27007KT P6SM VCSH BKN100 
     FM010600 VRB05KT P6SM BKN120 
     FM012200 25009KT P6SM VCSH SCT090 BKN120